Time;durP1;ratioP1;P1;durP2;ratioP2;P2;SDS_P1;SDS_P2;PMS_P1;PMS_P2;Temp;Humidity;BMP_temperature;BMP_pressure;BME280_temperature;BME280_humidity;BME280_pressure;Samples;Min_cycle;Max_cycle;Signal;HPM_P1;HPM_P2
2023/09/29 00:01:32;;;;;;;6.90;3.45;;;;;;;15.73;56.74;93255.81;2029702;70;20184;-75
2023/09/29 00:03:59;;;;;;;10.00;3.63;;;;;;;15.62;55.80;93253.03;2029452;70;20498;-74
2023/09/29 00:06:25;;;;;;;8.07;3.50;;;;;;;15.72;55.82;93257.19;2029700;70;20152;-75
2023/09/29 00:08:50;;;;;;;5.82;3.17;;;;;;;15.91;55.78;93252.41;2029678;70;20280;-75
2023/09/29 00:11:16;;;;;;;5.75;3.28;;;;;;;15.81;56.73;93251.91;2029798;70;20180;-74
2023/09/29 00:13:41;;;;;;;6.45;3.55;;;;;;;15.71;56.49;93252.13;2029212;70;20208;-75
2023/09/29 00:16:08;;;;;;;5.80;3.75;;;;;;;15.84;55.38;93248.53;2029347;70;20243;-74
2023/09/29 00:18:33;;;;;;;8.50;4.03;;;;;;;15.66;56.48;93247.59;2029270;70;20225;-74
2023/09/29 00:20:59;;;;;;;9.98;3.60;;;;;;;15.67;55.53;93240.56;2029598;70;20748;-74
2023/09/29 00:23:25;;;;;;;6.50;3.55;;;;;;;15.72;55.59;93245.81;2029644;70;20144;-74
2023/09/29 00:25:50;;;;;;;5.65;3.45;;;;;;;15.63;56.92;93252.44;2029772;70;20621;-75
2023/09/29 00:28:16;;;;;;;7.45;3.40;;;;;;;15.62;55.42;93244.53;2029619;70;20217;-75
2023/09/29 00:30:42;;;;;;;6.53;3.50;;;;;;;15.59;55.08;93246.53;2029502;70;20535;-74
2023/09/29 00:33:08;;;;;;;6.40;3.60;;;;;;;15.64;55.77;93247.50;2029750;70;20155;-74
2023/09/29 00:35:34;;;;;;;7.15;3.33;;;;;;;15.44;55.83;93236.56;2029378;70;20140;-74
2023/09/29 00:38:01;;;;;;;6.05;3.80;;;;;;;15.58;55.17;93255.66;2029169;70;20253;-74
2023/09/29 00:40:28;;;;;;;5.07;3.13;;;;;;;15.73;55.97;93252.97;2029175;70;20157;-74
2023/09/29 00:42:57;;;;;;;4.80;3.25;;;;;;;15.71;55.29;93254.94;2029031;70;20167;-74
2023/09/29 00:45:26;;;;;;;6.43;3.50;;;;;;;15.62;55.06;93256.59;2029719;70;20210;-74
2023/09/29 00:47:57;;;;;;;7.97;3.72;;;;;;;15.56;55.99;93253.47;2029138;70;20141;-74
2023/09/29 00:50:28;;;;;;;7.72;3.28;;;;;;;15.61;56.10;93251.56;2029398;70;20214;-74
2023/09/29 00:53:04;;;;;;;7.60;3.40;;;;;;;15.66;55.88;93247.59;2028918;70;20279;-74
2023/09/29 00:55:30;;;;;;;5.40;3.30;;;;;;;15.56;56.87;93253.47;2026386;70;20617;-75
2023/09/29 00:57:58;;;;;;;8.32;3.47;;;;;;;15.57;56.59;93254.19;2028898;70;20152;-75
2023/09/29 01:00:31;;;;;;;6.20;3.42;;;;;;;15.53;56.67;93249.06;2029025;70;20236;-75
2023/09/29 01:03:05;;;;;;;7.38;3.63;;;;;;;15.28;56.16;93249.91;2029641;70;20183;-74
2023/09/29 01:05:35;;;;;;;7.15;3.60;;;;;;;15.42;56.84;93244.97;2029691;70;20596;-75
2023/09/29 01:08:04;;;;;;;5.50;3.25;;;;;;;15.43;57.29;93246.44;2028934;70;20140;-74
2023/09/29 01:10:30;;;;;;;6.28;3.15;;;;;;;15.33;56.53;93245.19;2028962;70;20256;-74
2023/09/29 01:12:55;;;;;;;6.57;3.10;;;;;;;15.38;57.40;93241.91;2029488;70;20532;-74
2023/09/29 01:15:21;;;;;;;7.50;3.28;;;;;;;15.12;57.29;93244.13;2029115;70;20156;-73
2023/09/29 01:17:48;;;;;;;8.15;3.60;;;;;;;15.24;57.41;93241.91;2029175;70;20144;-73
2023/09/29 01:20:27;;;;;;;8.75;3.00;;;;;;;15.24;58.52;93244.03;2029562;70;20262;-73
2023/09/29 01:22:54;;;;;;;7.03;3.42;;;;;;;15.19;58.54;93243.06;2029648;70;20166;-74
2023/09/29 01:25:21;;;;;;;5.03;3.40;;;;;;;15.09;57.24;93250.31;2031373;70;20145;-74
2023/09/29 01:27:48;;;;;;;5.93;3.42;;;;;;;15.15;56.14;93242.84;2028841;70;20147;-74
2023/09/29 01:30:19;;;;;;;6.63;3.22;;;;;;;15.22;56.63;93250.31;2028922;70;20184;-73
2023/09/29 01:32:53;;;;;;;5.85;3.40;;;;;;;15.02;56.74;93248.50;2028989;70;20103;-74
2023/09/29 01:35:28;;;;;;;6.40;3.40;;;;;;;15.20;56.98;93252.31;2028936;70;20153;-74
2023/09/29 01:37:59;;;;;;;6.93;3.40;;;;;;;15.17;57.43;93236.56;2028809;70;20154;-74
2023/09/29 01:40:24;;;;;;;5.72;3.40;;;;;;;15.18;57.58;93244.44;2031333;70;20144;-74
2023/09/29 01:42:51;;;;;;;8.68;3.33;;;;;;;15.06;56.87;93240.97;2029145;70;20135;-74
2023/09/29 01:45:18;;;;;;;8.10;3.35;;;;;;;15.11;57.45;93239.06;2029254;70;20244;-74
2023/09/29 01:47:45;;;;;;;5.65;2.92;;;;;;;15.10;56.89;93246.84;2026074;70;20177;-73
2023/09/29 01:50:16;;;;;;;6.28;3.20;;;;;;;15.22;55.83;93243.94;2029525;70;20140;-74
2023/09/29 01:52:46;;;;;;;6.35;3.30;;;;;;;15.01;56.46;93250.63;2028545;70;20137;-74
2023/09/29 01:55:16;;;;;;;9.10;3.45;;;;;;;15.06;56.52;93248.72;2028531;70;20155;-74
2023/09/29 01:57:43;;;;;;;6.80;3.72;;;;;;;14.98;57.44;93252.63;2028636;70;20201;-75
2023/09/29 02:00:15;;;;;;;5.15;3.33;;;;;;;14.77;57.45;93257.81;2028733;70;20168;-75
2023/09/29 02:02:44;;;;;;;7.50;3.43;;;;;;;14.71;58.23;93247.63;2028684;70;20160;-74
2023/09/29 02:05:11;;;;;;;6.38;3.50;;;;;;;14.71;58.89;93253.31;2028581;70;20270;-74
2023/09/29 02:07:37;;;;;;;7.03;3.63;;;;;;;14.61;58.69;93240.66;2029003;70;20167;-74
2023/09/29 02:10:07;;;;;;;7.70;3.60;;;;;;;14.80;58.73;93253.72;2029628;70;20179;-74
2023/09/29 02:12:33;;;;;;;6.22;2.90;;;;;;;14.77;58.63;93252.16;2029088;70;20172;-74
2023/09/29 02:15:00;;;;;;;7.47;3.40;;;;;;;14.59;59.97;93243.41;2029058;70;20148;-74
2023/09/29 02:17:28;;;;;;;7.75;3.95;;;;;;;14.57;58.14;93251.78;2028928;70;20180;-74
2023/09/29 02:19:54;;;;;;;6.53;3.33;;;;;;;14.70;57.36;93248.97;2029065;70;20195;-74
2023/09/29 02:22:20;;;;;;;5.22;3.10;;;;;;;14.59;58.65;93254.72;2028605;70;20149;-74
2023/09/29 02:24:46;;;;;;;6.38;3.58;;;;;;;14.64;59.35;93250.75;2026133;70;20147;-74
2023/09/29 02:27:11;;;;;;;7.28;3.78;;;;;;;14.65;59.35;93252.94;2029975;70;20133;-74
2023/09/29 02:29:37;;;;;;;7.82;3.42;;;;;;;14.55;60.03;93254.50;2029660;70;20156;-74
2023/09/29 02:32:06;;;;;;;6.07;3.60;;;;;;;14.23;60.04;93252.03;2029037;70;20164;-74
2023/09/29 02:34:33;;;;;;;7.80;3.33;;;;;;;14.30;59.83;93255.25;2028878;70;20263;-74
2023/09/29 02:37:00;;;;;;;7.55;3.33;;;;;;;14.35;59.64;93257.66;2028763;70;20240;-74
2023/09/29 02:39:28;;;;;;;6.70;3.22;;;;;;;14.33;60.02;93253.97;2029041;70;20520;-75
2023/09/29 02:41:54;;;;;;;7.50;3.85;;;;;;;14.03;60.65;93253.75;2029228;70;20666;-75
2023/09/29 02:44:19;;;;;;;7.25;3.70;;;;;;;14.20;59.88;93255.38;2028907;70;20156;-74
2023/09/29 02:46:45;;;;;;;6.80;3.50;;;;;;;14.11;60.68;93244.97;2029460;70;20148;-74
2023/09/29 02:49:10;;;;;;;7.40;3.67;;;;;;;14.16;60.56;93261.56;2028782;70;20160;-74
2023/09/29 02:51:36;;;;;;;6.82;3.70;;;;;;;13.99;61.63;93268.41;2029423;70;20177;-75
2023/09/29 02:54:03;;;;;;;7.75;3.58;;;;;;;14.07;61.37;93275.91;2029153;70;20145;-74
2023/09/29 02:56:29;;;;;;;5.78;3.40;;;;;;;13.97;60.72;93271.13;2028668;70;20153;-75
2023/09/29 02:58:56;;;;;;;7.78;4.03;;;;;;;14.02;60.68;93269.25;2029301;70;20152;-75
2023/09/29 03:01:22;;;;;;;8.40;3.67;;;;;;;14.00;60.64;93274.78;2028787;70;20160;-74
2023/09/29 03:03:48;;;;;;;7.80;3.60;;;;;;;13.86;61.22;93274.72;2028979;70;20616;-75
2023/09/29 03:06:20;;;;;;;6.93;3.83;;;;;;;13.83;62.07;93272.38;2029275;70;20255;-76
2023/09/29 03:08:51;;;;;;;6.97;3.60;;;;;;;13.83;61.78;93275.94;2029365;70;20153;-75
2023/09/29 03:11:17;;;;;;;7.10;3.92;;;;;;;13.86;61.51;93273.97;2026253;70;20689;-74
2023/09/29 03:13:43;;;;;;;6.60;3.55;;;;;;;13.84;61.79;93282.38;2029185;70;20148;-75
2023/09/29 03:16:09;;;;;;;8.85;3.70;;;;;;;13.79;61.50;93272.16;2026703;70;20152;-75
2023/09/29 03:18:35;;;;;;;5.13;3.42;;;;;;;13.75;61.32;93271.94;2029277;70;20229;-75
2023/09/29 03:21:07;;;;;;;6.90;3.25;;;;;;;13.69;61.89;93275.84;2029466;70;20204;-75
2023/09/29 03:23:36;;;;;;;8.15;3.45;;;;;;;13.69;62.21;93283.63;2029454;70;20187;-74
2023/09/29 03:26:04;;;;;;;6.90;3.70;;;;;;;13.60;62.40;93276.75;2029373;70;20164;-74
2023/09/29 03:28:31;;;;;;;7.07;3.42;;;;;;;13.57;62.47;93275.16;2029101;70;20137;-74
2023/09/29 03:30:58;;;;;;;6.90;4.00;;;;;;;13.57;62.17;93272.34;2029070;70;20145;-74
2023/09/29 03:33:24;;;;;;;6.85;3.50;;;;;;;13.53;62.88;93265.69;2029865;70;20168;-75
2023/09/29 03:35:50;;;;;;;6.40;3.30;;;;;;;13.52;63.40;93273.47;2029759;70;20578;-74
2023/09/29 03:38:20;;;;;;;5.88;3.65;;;;;;;13.44;63.88;93279.38;2029672;70;20577;-75
2023/09/29 03:40:46;;;;;;;7.20;3.65;;;;;;;13.43;63.35;93277.16;2029855;70;20601;-75
2023/09/29 03:43:12;;;;;;;5.38;3.35;;;;;;;13.34;64.44;93283.69;2029186;70;20139;-75
2023/09/29 03:45:38;;;;;;;6.93;3.72;;;;;;;13.26;64.05;93283.19;2029725;70;20153;-75
2023/09/29 03:48:05;;;;;;;8.93;3.90;;;;;;;13.19;64.72;93276.38;2029476;70;20172;-74
2023/09/29 03:50:32;;;;;;;7.72;3.70;;;;;;;13.23;64.17;93277.41;2029789;70;20159;-75
2023/09/29 03:52:59;;;;;;;7.40;4.03;;;;;;;13.27;63.88;93282.56;2029686;70;20152;-75
2023/09/29 03:55:27;;;;;;;8.07;3.33;;;;;;;13.29;63.33;93276.31;2029697;70;20163;-75
2023/09/29 03:57:53;;;;;;;9.27;3.50;;;;;;;13.09;64.47;93273.69;2029539;70;20510;-74
2023/09/29 04:00:19;;;;;;;8.45;4.20;;;;;;;13.21;63.85;93274.44;2029218;70;20144;-74
2023/09/29 04:02:49;;;;;;;7.63;3.90;;;;;;;13.15;63.71;93279.72;2031456;70;20148;-74
2023/09/29 04:05:15;;;;;;;8.25;3.83;;;;;;;13.12;63.86;93277.38;2029508;70;20173;-73
2023/09/29 04:07:42;;;;;;;7.53;4.15;;;;;;;13.18;63.77;93280.56;2029514;70;20253;-73
2023/09/29 04:10:09;;;;;;;7.35;4.45;;;;;;;13.01;64.22;93278.84;2029054;70;20290;-74
2023/09/29 04:12:36;;;;;;;11.80;4.07;;;;;;;13.19;63.60;93277.16;2028912;70;20149;-74
2023/09/29 04:15:01;;;;;;;6.60;3.67;;;;;;;13.22;63.15;93281.59;2029618;70;20255;-73
2023/09/29 04:17:27;;;;;;;8.18;3.38;;;;;;;13.21;63.73;93274.44;2029761;70;20184;-74
2023/09/29 04:19:55;;;;;;;6.03;3.50;;;;;;;13.30;62.34;93280.63;2029606;70;20563;-75
2023/09/29 04:22:24;;;;;;;7.63;3.60;;;;;;;13.35;61.95;93277.41;2029354;70;20148;-75
2023/09/29 04:24:50;;;;;;;6.45;3.25;;;;;;;13.35;61.79;93282.31;2029186;70;20577;-74
2023/09/29 04:27:17;;;;;;;7.07;3.53;;;;;;;13.06;62.80;93283.41;2029607;70;20144;-76
2023/09/29 04:29:43;;;;;;;8.73;3.70;;;;;;;13.29;62.08;93273.50;2029849;70;20173;-75
2023/09/29 04:32:08;;;;;;;6.95;3.70;;;;;;;13.37;61.21;93282.44;2029684;70;20141;-75
2023/09/29 04:34:34;;;;;;;9.68;3.50;;;;;;;13.30;63.00;93292.66;2029625;70;20172;-74
2023/09/29 04:36:59;;;;;;;7.93;3.25;;;;;;;13.42;61.67;93281.31;2029981;70;20184;-74
2023/09/29 04:39:25;;;;;;;5.85;3.03;;;;;;;13.45;61.93;93288.56;2029223;70;20170;-75
2023/09/29 04:41:51;;;;;;;6.15;3.03;;;;;;;13.46;62.11;93290.78;2029793;70;20148;-75
2023/09/29 04:44:18;;;;;;;4.75;3.00;;;;;;;13.52;60.99;93298.91;2029720;70;20525;-74
2023/09/29 04:46:44;;;;;;;11.30;4.15;;;;;;;13.42;61.32;93290.56;2029529;70;20253;-75
2023/09/29 04:49:10;;;;;;;7.53;3.83;;;;;;;13.42;61.46;93296.22;2029605;70;20156;-75
2023/09/29 04:51:39;;;;;;;7.72;3.25;;;;;;;13.38;60.84;93303.72;2029632;70;20544;-75
2023/09/29 04:54:05;;;;;;;9.80;4.47;;;;;;;13.41;61.13;93296.81;2029594;70;20172;-74
2023/09/29 04:56:32;;;;;;;12.82;5.82;;;;;;;13.30;61.65;93309.63;2029143;70;20497;-75
2023/09/29 04:58:57;;;;;;;10.15;5.85;;;;;;;13.34;61.76;93306.31;2026413;70;20156;-75
2023/09/29 05:01:27;;;;;;;8.70;4.90;;;;;;;13.28;61.63;93311.56;2029570;70;20186;-74
2023/09/29 05:03:52;;;;;;;5.53;3.60;;;;;;;13.16;62.64;93303.81;2029092;70;20209;-75
2023/09/29 05:06:18;;;;;;;6.78;3.47;;;;;;;13.28;61.43;93312.31;2029581;70;20148;-75
2023/09/29 05:08:45;;;;;;;9.10;3.33;;;;;;;13.35;61.74;93307.78;2029597;70;20244;-74
2023/09/29 05:11:27;;;;;;;8.40;3.60;;;;;;;13.33;62.34;93321.78;2029603;70;20156;-74
2023/09/29 05:13:54;;;;;;;7.10;4.28;;;;;;;13.19;62.65;93313.91;2029485;70;20161;-74
2023/09/29 05:16:21;;;;;;;8.60;4.22;;;;;;;13.07;62.99;93312.41;2029239;70;20153;-76
2023/09/29 05:18:47;;;;;;;7.20;4.22;;;;;;;12.99;63.53;93304.16;2029497;70;20166;-76
2023/09/29 05:21:13;;;;;;;8.00;4.30;;;;;;;13.08;63.39;93313.88;2029677;70;20148;-74
2023/09/29 05:23:39;;;;;;;6.20;3.50;;;;;;;13.05;63.98;93310.19;2029346;70;20156;-74
2023/09/29 05:26:07;;;;;;;8.38;4.20;;;;;;;12.94;63.84;93317.31;2029137;70;20160;-75
2023/09/29 05:28:34;;;;;;;8.45;4.03;;;;;;;12.94;63.86;93320.13;2028782;70;20155;-74
2023/09/29 05:31:00;;;;;;;5.88;3.45;;;;;;;12.93;63.83;93324.31;2029404;70;20213;-75
2023/09/29 05:33:25;;;;;;;8.75;3.72;;;;;;;12.92;64.00;93331.34;2029026;70;20541;-75
2023/09/29 05:35:51;;;;;;;6.13;3.80;;;;;;;12.81;64.29;93326.38;2029310;70;20152;-74
2023/09/29 05:38:18;;;;;;;8.52;4.38;;;;;;;12.94;63.35;93336.38;2028977;70;20200;-74
2023/09/29 05:40:47;;;;;;;7.35;4.43;;;;;;;12.97;63.80;93333.06;2030618;70;20169;-74
2023/09/29 05:43:13;;;;;;;9.55;4.53;;;;;;;13.03;62.85;93329.84;2030712;70;20663;-74
2023/09/29 05:45:42;;;;;;;8.95;4.05;;;;;;;13.00;63.65;93344.47;2032666;70;20148;-75
2023/09/29 05:48:08;;;;;;;12.18;4.43;;;;;;;13.02;62.98;93336.88;2032864;70;20141;-74
2023/09/29 05:50:34;;;;;;;11.27;4.32;;;;;;;13.03;63.32;93338.34;2030522;70;20168;-74
2023/09/29 05:52:59;;;;;;;7.68;3.92;;;;;;;13.05;62.73;93334.88;2029539;70;20156;-74
2023/09/29 05:55:25;;;;;;;5.60;3.17;;;;;;;13.06;63.27;93330.75;2029127;70;20666;-75
2023/09/29 05:57:51;;;;;;;6.13;3.25;;;;;;;13.16;63.45;93343.41;2029338;70;20144;-74
2023/09/29 06:00:18;;;;;;;11.63;4.47;;;;;;;13.07;63.10;93341.41;2031203;70;20180;-75
2023/09/29 06:02:45;;;;;;;9.05;4.07;;;;;;;13.10;64.01;93340.19;2029533;70;20229;-75
2023/09/29 06:05:11;;;;;;;7.90;3.50;;;;;;;13.19;61.83;93341.41;2029444;70;20554;-74
2023/09/29 06:07:38;;;;;;;7.25;3.17;;;;;;;13.18;61.50;93335.03;2029424;70;20247;-75
2023/09/29 06:10:04;;;;;;;6.45;3.65;;;;;;;13.39;62.16;93348.34;2029526;70;20168;-77
2023/09/29 06:12:30;;;;;;;11.43;4.38;;;;;;;13.25;62.46;93350.31;2029238;70;20271;-73
2023/09/29 06:14:57;;;;;;;8.27;4.20;;;;;;;13.25;61.71;93353.13;2029462;70;20144;-72
2023/09/29 06:17:22;;;;;;;7.30;4.25;;;;;;;13.19;63.57;93352.72;2029275;70;20149;-74
2023/09/29 06:19:49;;;;;;;8.93;4.15;;;;;;;13.06;63.58;93350.53;2031525;70;20153;-73
2023/09/29 06:22:14;;;;;;;5.78;3.17;;;;;;;13.18;63.38;93351.25;2031928;70;20144;-74
2023/09/29 06:24:44;;;;;;;9.23;4.13;;;;;;;13.24;62.52;93354.50;2032166;70;20202;-74
2023/09/29 06:27:14;;;;;;;6.93;3.70;;;;;;;13.25;62.48;93349.59;2032042;70;20129;-73
2023/09/29 06:29:39;;;;;;;6.70;3.22;;;;;;;13.18;62.02;93346.34;2032732;70;20658;-74
2023/09/29 06:32:11;;;;;;;6.85;3.45;;;;;;;13.17;61.85;93341.31;2032500;70;20152;-76
2023/09/29 06:34:36;;;;;;;6.82;3.72;;;;;;;13.23;62.26;93353.00;2032459;70;20152;-74
2023/09/29 06:37:02;;;;;;;5.38;3.17;;;;;;;13.41;61.75;93348.47;2030765;70;20144;-73
2023/09/29 06:39:29;;;;;;;7.47;3.05;;;;;;;13.50;62.51;93355.34;2029487;70;20145;-74
2023/09/29 06:41:55;;;;;;;8.90;3.45;;;;;;;13.56;62.87;93361.38;2028428;70;20224;-74
2023/09/29 06:44:21;;;;;;;8.82;4.88;;;;;;;12.88;64.17;93362.16;2029601;70;20192;-75
2023/09/29 06:46:47;;;;;;;8.43;4.68;;;;;;;13.26;63.46;93368.00;2028737;70;20394;-74
2023/09/29 06:49:12;;;;;;;8.82;5.35;;;;;;;13.21;64.09;93359.25;2029912;70;20346;-73
2023/09/29 06:51:38;;;;;;;10.10;4.90;;;;;;;13.21;64.01;93364.91;2029272;70;20148;-73
2023/09/29 06:54:04;;;;;;;9.05;4.90;;;;;;;13.27;63.84;93361.00;2029845;70;20179;-74
2023/09/29 06:56:29;;;;;;;8.48;4.10;;;;;;;13.31;63.92;93362.00;2029520;70;20149;-74
2023/09/29 06:58:55;;;;;;;7.13;4.45;;;;;;;13.41;64.28;93368.25;2029946;70;20562;-74
2023/09/29 07:01:21;;;;;;;7.35;3.80;;;;;;;13.51;63.04;93373.78;2029711;70;20152;-74
2023/09/29 07:03:47;;;;;;;6.85;3.38;;;;;;;13.51;63.61;93376.63;2029689;70;20145;-73
2023/09/29 07:06:14;;;;;;;9.82;3.88;;;;;;;13.45;64.10;93373.44;2029585;70;20235;-74
2023/09/29 07:08:40;;;;;;;7.95;4.30;;;;;;;13.48;63.72;93366.56;2029793;70;20244;-74
2023/09/29 07:11:05;;;;;;;9.90;4.20;;;;;;;13.45;63.51;93367.78;2029764;70;20127;-76
2023/09/29 07:13:31;;;;;;;8.90;3.95;;;;;;;13.58;62.73;93383.41;2029228;70;20229;-74
2023/09/29 07:15:59;;;;;;;9.60;4.05;;;;;;;13.62;63.62;93387.22;2029679;70;20343;-76
2023/09/29 07:18:25;;;;;;;9.15;4.30;;;;;;;13.44;63.72;93378.34;2029595;70;20157;-74
2023/09/29 07:20:52;;;;;;;9.13;4.70;;;;;;;13.50;64.15;93382.91;2029702;70;20148;-74
2023/09/29 07:23:24;;;;;;;8.30;4.32;;;;;;;13.54;64.38;93385.97;2029707;70;20152;-75
2023/09/29 07:25:54;;;;;;;8.65;4.25;;;;;;;13.55;63.96;93393.84;2029778;70;20628;-76
2023/09/29 07:28:23;;;;;;;7.70;4.50;;;;;;;13.58;63.53;93384.13;2029127;70;20149;-75
2023/09/29 07:30:52;;;;;;;9.75;4.47;;;;;;;13.60;64.53;93384.25;2029498;70;20160;-74
2023/09/29 07:33:20;;;;;;;11.48;4.35;;;;;;;13.63;64.62;93387.94;2029512;70;20140;-75
2023/09/29 07:35:46;;;;;;;7.70;4.20;;;;;;;13.64;64.89;93384.50;2029528;70;20188;-74
2023/09/29 07:38:13;;;;;;;8.80;4.38;;;;;;;14.04;63.46;93382.59;2029554;70;20155;-73
2023/09/29 07:40:39;;;;;;;8.23;4.45;;;;;;;14.32;65.36;93379.97;2028931;70;20209;-73
2023/09/29 07:43:05;;;;;;;7.82;4.10;;;;;;;14.76;64.44;93384.63;2028263;70;20161;-73
2023/09/29 07:45:34;;;;;;;9.20;4.03;;;;;;;15.19;63.68;93381.31;2027482;70;20232;-73
2023/09/29 07:47:59;;;;;;;13.00;4.50;;;;;;;15.48;63.04;93380.72;2029766;70;20137;-77
2023/09/29 07:50:25;;;;;;;7.93;4.03;;;;;;;15.72;62.12;93370.72;2029507;70;20194;-73
2023/09/29 07:52:51;;;;;;;10.43;4.03;;;;;;;16.14;62.14;93382.06;2029638;70;20566;-75
2023/09/29 07:55:16;;;;;;;7.13;3.65;;;;;;;16.62;59.30;93394.38;2031581;70;20581;-74
2023/09/29 07:57:42;;;;;;;9.23;4.32;;;;;;;16.57;58.57;93390.63;2029589;70;20647;-75
2023/09/29 08:00:12;;;;;;;9.07;3.70;;;;;;;17.21;56.59;93383.03;2029429;70;20164;-76
2023/09/29 08:02:39;;;;;;;7.25;3.47;;;;;;;17.24;54.96;93382.50;2029702;70;20156;-74
2023/09/29 08:05:07;;;;;;;5.55;3.05;;;;;;;17.59;54.55;93374.81;2029538;70;20199;-74
2023/09/29 08:07:33;;;;;;;5.80;3.30;;;;;;;17.96;54.34;93380.06;2029144;70;20160;-73
2023/09/29 08:09:59;;;;;;;8.43;3.40;;;;;;;18.14;55.05;93377.28;2029788;70;20155;-76
2023/09/29 08:12:25;;;;;;;8.15;3.75;;;;;;;18.51;53.74;93380.31;2029650;70;20144;-76
2023/09/29 08:14:50;;;;;;;6.90;3.30;;;;;;;18.34;54.35;93383.88;2029624;70;20176;-74
2023/09/29 08:17:18;;;;;;;7.38;3.60;;;;;;;19.05;52.44;93383.97;2029566;70;20160;-74
2023/09/29 08:19:44;;;;;;;6.90;3.30;;;;;;;18.82;52.87;93390.16;2029225;70;20180;-74
2023/09/29 08:22:09;;;;;;;7.15;3.60;;;;;;;19.22;51.42;93378.94;2029028;70;20198;-74
2023/09/29 08:24:36;;;;;;;4.82;3.38;;;;;;;19.65;53.08;93400.59;2029523;70;20148;-75
2023/09/29 08:27:02;;;;;;;5.38;3.10;;;;;;;19.93;50.89;93398.81;2028107;70;20156;-75
2023/09/29 08:29:28;;;;;;;6.20;3.35;;;;;;;19.80;50.66;93394.03;2029360;70;20141;-73
2023/09/29 08:31:55;;;;;;;5.70;3.15;;;;;;;20.56;49.01;93389.63;2029385;70;20207;-75
2023/09/29 08:34:20;;;;;;;5.78;2.80;;;;;;;20.83;47.52;93387.69;2028456;70;20610;-74
2023/09/29 08:36:46;;;;;;;4.53;2.78;;;;;;;20.73;47.46;93381.63;2029161;70;20172;-74
2023/09/29 08:39:12;;;;;;;5.25;2.88;;;;;;;21.11;46.54;93382.16;2029057;70;20139;-73
2023/09/29 08:41:44;;;;;;;7.03;3.13;;;;;;;21.19;45.77;93388.16;2029427;70;20148;-74
2023/09/29 08:44:17;;;;;;;4.93;3.20;;;;;;;21.38;45.87;93380.19;2029089;70;20149;-73
2023/09/29 08:46:47;;;;;;;5.95;2.90;;;;;;;21.44;45.02;93388.94;2029864;70;20251;-74
2023/09/29 08:49:17;;;;;;;5.07;2.78;;;;;;;22.05;44.38;93390.81;2029553;70;20149;-74
2023/09/29 08:51:46;;;;;;;6.40;3.03;;;;;;;22.14;43.90;93388.94;2029194;70;20204;-74
2023/09/29 08:54:13;;;;;;;3.53;2.58;;;;;;;22.73;43.14;93390.56;2028976;70;20192;-76
2023/09/29 08:56:39;;;;;;;4.55;2.50;;;;;;;23.24;41.87;93386.13;2029102;70;20141;-75
2023/09/29 08:59:06;;;;;;;4.65;3.28;;;;;;;23.50;42.08;93381.00;2029836;70;20200;-75
2023/09/29 09:01:33;;;;;;;7.97;2.95;;;;;;;23.75;42.64;93381.59;2029319;70;20148;-74
2023/09/29 09:04:00;;;;;;;6.03;2.53;;;;;;;24.20;42.24;93380.41;2029739;70;20148;-75
2023/09/29 09:06:28;;;;;;;5.70;2.83;;;;;;;24.01;42.08;93390.06;2029440;70;20129;-75
2023/09/29 09:08:55;;;;;;;3.50;2.47;;;;;;;24.22;41.43;93377.56;2029319;70;20634;-75
2023/09/29 09:11:21;;;;;;;5.85;2.63;;;;;;;24.63;39.24;93381.28;2029350;70;20141;-75
2023/09/29 09:14:04;;;;;;;3.45;2.40;;;;;;;23.82;41.36;93383.16;2029220;70;20213;-75
2023/09/29 09:16:31;;;;;;;4.80;2.75;;;;;;;24.00;41.05;93372.06;2029353;70;20583;-76
2023/09/29 09:19:13;;;;;;;4.85;2.75;;;;;;;23.92;40.46;93383.41;2029215;70;20168;-74
2023/09/29 09:21:41;;;;;;;3.95;2.40;;;;;;;24.85;39.93;93375.22;2028601;70;20164;-72
2023/09/29 09:24:23;;;;;;;5.80;2.30;;;;;;;25.55;37.96;93377.84;2029315;70;20137;-74
2023/09/29 09:26:50;;;;;;;4.85;2.80;;;;;;;25.75;37.02;93370.91;2029483;70;20207;-76
2023/09/29 09:29:17;;;;;;;5.13;2.58;;;;;;;25.43;37.68;93371.16;2028476;70;20581;-73
2023/09/29 09:31:52;;;;;;;4.90;2.50;;;;;;;26.55;36.43;93370.59;2028991;70;20517;-75
2023/09/29 09:34:33;;;;;;;5.65;2.85;;;;;;;25.95;35.98;93356.81;2029177;70;20168;-74
2023/09/29 09:36:58;;;;;;;6.47;2.88;;;;;;;25.93;35.59;93356.06;2028836;70;20601;-75
2023/09/29 09:39:28;;;;;;;5.30;2.60;;;;;;;26.05;35.29;93353.34;2029656;70;20164;-73
2023/09/29 09:41:56;;;;;;;4.35;2.70;;;;;;;26.48;35.47;93356.78;2029213;70;20186;-74
2023/09/29 09:44:25;;;;;;;5.28;2.85;;;;;;;27.06;34.74;93359.56;2029442;70;20155;-75
2023/09/29 09:47:10;;;;;;;5.85;2.58;;;;;;;27.67;34.58;93353.56;2029519;70;20608;-75
2023/09/29 09:49:41;;;;;;;5.45;2.80;;;;;;;27.72;33.42;93351.47;2028900;70;20161;-74
2023/09/29 09:52:09;;;;;;;4.35;3.05;;;;;;;27.80;34.62;93352.25;2029375;70;20231;-74
2023/09/29 09:54:44;;;;;;;4.10;2.90;;;;;;;27.90;33.11;93345.78;2029392;70;20210;-73
2023/09/29 09:57:11;;;;;;;3.92;2.80;;;;;;;27.30;33.61;93350.41;2028658;70;20569;-74
2023/09/29 09:59:39;;;;;;;6.03;2.83;;;;;;;27.29;33.84;93346.06;2029185;70;20196;-73
2023/09/29 10:02:07;;;;;;;4.70;2.80;;;;;;;28.05;34.55;93337.94;2029204;70;20341;-74
2023/09/29 10:04:35;;;;;;;5.68;2.63;;;;;;;28.74;33.03;93340.41;2028803;70;20156;-74
2023/09/29 10:07:04;;;;;;;4.60;2.80;;;;;;;28.15;32.98;93348.84;2028995;70;21047;-74
2023/09/29 10:09:43;;;;;;;5.32;2.70;;;;;;;28.54;32.82;93338.16;2029329;70;20164;-73
2023/09/29 10:12:24;;;;;;;3.92;2.67;;;;;;;29.05;32.46;93318.75;2029536;70;20610;-73
2023/09/29 10:14:52;;;;;;;5.13;2.80;;;;;;;28.78;32.47;93328.84;2028590;70;20174;-74
2023/09/29 10:17:21;;;;;;;3.15;2.63;;;;;;;29.49;31.57;93331.09;2028986;70;20175;-74
2023/09/29 10:19:51;;;;;;;3.63;2.53;;;;;;;30.66;28.64;93326.50;2029248;70;20202;-74
2023/09/29 10:22:25;;;;;;;2.95;2.40;;;;;;;30.06;29.10;93325.25;2029380;70;20148;-75
2023/09/29 10:24:59;;;;;;;4.55;2.72;;;;;;;31.82;28.55;93322.81;2029747;70;20160;-75
2023/09/29 10:27:31;;;;;;;6.93;2.60;;;;;;;32.98;27.80;93325.88;2029679;70;20171;-75
2023/09/29 10:30:16;;;;;;;4.87;2.33;;;;;;;32.79;27.71;93323.19;2029113;70;20290;-75
2023/09/29 10:32:48;;;;;;;3.08;2.40;;;;;;;33.60;27.29;93318.38;2029774;70;20179;-75
2023/09/29 10:35:22;;;;;;;4.07;2.50;;;;;;;33.82;26.50;93322.41;2029596;70;20533;-74
2023/09/29 10:37:54;;;;;;;5.38;2.40;;;;;;;32.07;28.04;93320.38;2029390;70;20517;-75
2023/09/29 10:40:27;;;;;;;3.35;2.78;;;;;;;33.33;27.93;93311.50;2029595;70;20155;-76
2023/09/29 10:42:56;;;;;;;2.97;2.58;;;;;;;35.37;26.53;93313.47;2026689;70;20133;-75
2023/09/29 10:45:31;;;;;;;5.55;2.55;;;;;;;36.65;25.72;93306.53;2028980;70;20152;-75
2023/09/29 10:48:06;;;;;;;5.15;2.40;;;;;;;36.72;24.94;93316.63;2029618;70;20153;-76
2023/09/29 10:50:52;;;;;;;5.90;2.28;;;;;;;35.40;26.40;93309.00;2029266;70;20180;-76
2023/09/29 10:53:22;;;;;;;3.92;2.30;;;;;;;34.85;25.41;93313.16;2029613;70;20176;-76
2023/09/29 10:55:52;;;;;;;3.30;2.35;;;;;;;35.50;24.87;93305.88;2029731;70;20164;-76
2023/09/29 10:58:19;;;;;;;3.58;2.30;;;;;;;36.52;25.18;93308.38;2031909;70;20175;-74
2023/09/29 11:00:47;;;;;;;3.10;2.28;;;;;;;39.58;22.58;93316.47;2032961;70;20657;-74
2023/09/29 11:03:15;;;;;;;5.22;2.40;;;;;;;37.57;23.65;93301.59;2032967;70;20132;-75
2023/09/29 11:05:49;;;;;;;5.25;2.13;;;;;;;40.31;22.24;93309.09;2032890;70;20147;-75
2023/09/29 11:08:21;;;;;;;5.82;2.40;;;;;;;41.19;21.16;93305.22;2032775;70;20270;-75
2023/09/29 11:11:13;;;;;;;2.97;1.95;;;;;;;40.78;22.25;93296.00;2032769;70;20236;-75
2023/09/29 11:13:39;;;;;;;;;;;;;;;42.47;20.16;93292.34;2032370;70;20145;-75
2023/09/29 11:16:16;;;;;;;3.58;2.13;;;;;;;42.98;19.14;93281.53;2032822;70;20057;-76
2023/09/29 11:18:46;;;;;;;2.90;2.05;;;;;;;42.62;19.00;93278.28;2032743;70;20132;-75
2023/09/29 11:21:12;;;;;;;2.40;1.75;;;;;;;44.02;18.70;93278.69;2031982;70;20140;-75
2023/09/29 11:23:44;;;;;;;2.72;1.90;;;;;;;44.49;18.33;93275.22;2032945;70;20251;-75
2023/09/29 11:26:10;;;;;;;3.15;2.00;;;;;;;44.91;19.18;93268.25;2032563;70;20146;-75
2023/09/29 11:28:43;;;;;;;4.38;2.00;;;;;;;45.65;17.29;93279.91;2032187;70;20221;-75
2023/09/29 11:31:11;;;;;;;3.28;1.98;;;;;;;46.18;18.49;93267.53;2033073;70;20264;-75
2023/09/29 11:33:39;;;;;;;3.97;2.03;;;;;;;47.24;17.86;93266.19;2032890;70;20278;-76
2023/09/29 11:36:16;;;;;;;2.00;1.80;;;;;;;46.08;16.96;93271.88;2032427;70;20160;-76
2023/09/29 11:38:43;;;;;;;2.28;1.77;;;;;;;47.86;17.08;93259.50;2033095;70;20244;-77